sensor_id;sensor_type;location;lat;lon;timestamp;P1;durP1;ratioP1;P2;durP2;ratioP2
61104;SDS011;46987;32.638;-115.438;2023-03-01T00:02:08;2.85;;;0.70;;
61104;SDS011;46987;32.638;-115.438;2023-03-01T00:04:35;2.28;;;0.88;;
61104;SDS011;46987;32.638;-115.438;2023-03-01T00:07:03;4.10;;;0.75;;
61104;SDS011;46987;32.638;-115.438;2023-03-01T00:09:29;6.60;;;1.42;;
61104;SDS011;46987;32.638;-115.438;2023-03-01T00:11:56;4.93;;;0.85;;
61104;SDS011;46987;32.638;-115.438;2023-03-01T00:14:22;3.00;;;0.73;;
61104;SDS011;46987;32.638;-115.438;2023-03-01T00:16:49;5.30;;;0.90;;
61104;SDS011;46987;32.638;-115.438;2023-03-01T00:19:17;4.85;;;0.68;;
61104;SDS011;46987;32.638;-115.438;2023-03-01T00:21:44;1.92;;;0.55;;
61104;SDS011;46987;32.638;-115.438;2023-03-01T00:24:12;6.70;;;1.45;;
61104;SDS011;46987;32.638;-115.438;2023-03-01T00:26:39;4.43;;;1.05;;
61104;SDS011;46987;32.638;-115.438;2023-03-01T00:29:06;6.85;;;1.48;;
61104;SDS011;46987;32.638;-115.438;2023-03-01T00:31:34;4.05;;;0.80;;
61104;SDS011;46987;32.638;-115.438;2023-03-01T00:34:01;3.08;;;0.93;;
61104;SDS011;46987;32.638;-115.438;2023-03-01T00:36:29;14.07;;;1.92;;
61104;SDS011;46987;32.638;-115.438;2023-03-01T00:38:55;2.85;;;0.95;;
61104;SDS011;46987;32.638;-115.438;2023-03-01T00:41:24;6.40;;;1.52;;
61104;SDS011;46987;32.638;-115.438;2023-03-01T00:43:52;4.40;;;1.00;;
61104;SDS011;46987;32.638;-115.438;2023-03-01T00:46:19;4.38;;;0.90;;
61104;SDS011;46987;32.638;-115.438;2023-03-01T00:48:47;3.97;;;1.00;;
61104;SDS011;46987;32.638;-115.438;2023-03-01T00:51:15;6.40;;;0.93;;
61104;SDS011;46987;32.638;-115.438;2023-03-01T00:53:42;3.25;;;0.77;;
61104;SDS011;46987;32.638;-115.438;2023-03-01T00:56:09;5.72;;;1.13;;
61104;SDS011;46987;32.638;-115.438;2023-03-01T00:58:37;3.15;;;1.20;;
61104;SDS011;46987;32.638;-115.438;2023-03-01T01:01:07;4.07;;;1.08;;
61104;SDS011;46987;32.638;-115.438;2023-03-01T01:03:43;4.60;;;1.42;;
61104;SDS011;46987;32.638;-115.438;2023-03-01T01:06:13;3.92;;;0.80;;
61104;SDS011;46987;32.638;-115.438;2023-03-01T01:08:42;7.70;;;0.93;;
61104;SDS011;46987;32.638;-115.438;2023-03-01T01:11:09;4.53;;;0.85;;
61104;SDS011;46987;32.638;-115.438;2023-03-01T01:13:37;5.53;;;0.80;;
61104;SDS011;46987;32.638;-115.438;2023-03-01T01:16:04;4.97;;;0.73;;
61104;SDS011;46987;32.638;-115.438;2023-03-01T01:18:31;7.00;;;1.42;;
61104;SDS011;46987;32.638;-115.438;2023-03-01T01:21:02;5.13;;;0.98;;
61104;SDS011;46987;32.638;-115.438;2023-03-01T01:23:29;6.55;;;1.15;;
61104;SDS011;46987;32.638;-115.438;2023-03-01T01:25:55;6.55;;;1.17;;
61104;SDS011;46987;32.638;-115.438;2023-03-01T01:28:22;8.27;;;1.10;;
61104;SDS011;46987;32.638;-115.438;2023-03-01T01:30:50;4.15;;;1.08;;
61104;SDS011;46987;32.638;-115.438;2023-03-01T01:33:17;7.97;;;1.42;;
61104;SDS011;46987;32.638;-115.438;2023-03-01T01:35:45;5.90;;;1.15;;
61104;SDS011;46987;32.638;-115.438;2023-03-01T01:38:11;3.90;;;1.15;;
61104;SDS011;46987;32.638;-115.438;2023-03-01T01:40:42;6.28;;;1.35;;
61104;SDS011;46987;32.638;-115.438;2023-03-01T01:43:11;3.95;;;0.80;;
61104;SDS011;46987;32.638;-115.438;2023-03-01T01:45:42;6.35;;;1.25;;
61104;SDS011;46987;32.638;-115.438;2023-03-01T01:48:12;8.75;;;1.23;;
61104;SDS011;46987;32.638;-115.438;2023-03-01T01:50:40;3.58;;;0.90;;
61104;SDS011;46987;32.638;-115.438;2023-03-01T01:53:08;10.32;;;1.15;;
61104;SDS011;46987;32.638;-115.438;2023-03-01T01:55:36;4.93;;;1.00;;
61104;SDS011;46987;32.638;-115.438;2023-03-01T01:58:04;4.57;;;0.80;;
61104;SDS011;46987;32.638;-115.438;2023-03-01T02:00:32;7.57;;;1.23;;
61104;SDS011;46987;32.638;-115.438;2023-03-01T02:02:59;4.05;;;1.10;;
61104;SDS011;46987;32.638;-115.438;2023-03-01T02:05:28;9.95;;;1.60;;
61104;SDS011;46987;32.638;-115.438;2023-03-01T02:07:58;6.50;;;1.10;;
61104;SDS011;46987;32.638;-115.438;2023-03-01T02:10:25;7.20;;;1.00;;
61104;SDS011;46987;32.638;-115.438;2023-03-01T02:12:54;7.15;;;1.80;;
61104;SDS011;46987;32.638;-115.438;2023-03-01T02:15:21;8.43;;;1.20;;
61104;SDS011;46987;32.638;-115.438;2023-03-01T02:17:48;6.85;;;1.20;;
61104;SDS011;46987;32.638;-115.438;2023-03-01T02:20:16;8.23;;;1.45;;
61104;SDS011;46987;32.638;-115.438;2023-03-01T02:22:47;6.05;;;1.25;;
61104;SDS011;46987;32.638;-115.438;2023-03-01T02:27:58;11.68;;;1.42;;
61104;SDS011;46987;32.638;-115.438;2023-03-01T02:30:31;6.00;;;1.42;;
61104;SDS011;46987;32.638;-115.438;2023-03-01T02:32:58;5.10;;;1.33;;
61104;SDS011;46987;32.638;-115.438;2023-03-01T02:35:32;6.60;;;1.10;;
61104;SDS011;46987;32.638;-115.438;2023-03-01T02:38:00;11.38;;;1.70;;
61104;SDS011;46987;32.638;-115.438;2023-03-01T02:40:27;8.35;;;1.23;;
61104;SDS011;46987;32.638;-115.438;2023-03-01T02:42:55;6.93;;;1.90;;
61104;SDS011;46987;32.638;-115.438;2023-03-01T02:45:22;13.18;;;1.33;;
61104;SDS011;46987;32.638;-115.438;2023-03-01T02:47:52;8.40;;;1.25;;
61104;SDS011;46987;32.638;-115.438;2023-03-01T02:50:22;5.40;;;1.20;;
61104;SDS011;46987;32.638;-115.438;2023-03-01T02:52:55;6.97;;;0.98;;
61104;SDS011;46987;32.638;-115.438;2023-03-01T02:55:24;6.65;;;1.02;;
61104;SDS011;46987;32.638;-115.438;2023-03-01T02:57:50;6.00;;;1.38;;
61104;SDS011;46987;32.638;-115.438;2023-03-01T03:00:18;5.70;;;1.20;;
61104;SDS011;46987;32.638;-115.438;2023-03-01T03:02:46;7.72;;;1.08;;
61104;SDS011;46987;32.638;-115.438;2023-03-01T03:07:48;8.80;;;1.15;;
61104;SDS011;46987;32.638;-115.438;2023-03-01T03:10:16;5.78;;;1.25;;
61104;SDS011;46987;32.638;-115.438;2023-03-01T03:12:42;5.97;;;1.10;;
61104;SDS011;46987;32.638;-115.438;2023-03-01T03:15:09;5.80;;;2.08;;
61104;SDS011;46987;32.638;-115.438;2023-03-01T03:17:39;4.18;;;1.00;;
61104;SDS011;46987;32.638;-115.438;2023-03-01T03:20:06;4.22;;;1.20;;
61104;SDS011;46987;32.638;-115.438;2023-03-01T03:22:37;9.98;;;1.63;;
61104;SDS011;46987;32.638;-115.438;2023-03-01T03:25:05;5.07;;;1.20;;
61104;SDS011;46987;32.638;-115.438;2023-03-01T03:27:36;7.50;;;1.15;;
61104;SDS011;46987;32.638;-115.438;2023-03-01T03:30:04;9.90;;;1.17;;
61104;SDS011;46987;32.638;-115.438;2023-03-01T03:32:35;6.43;;;1.17;;
61104;SDS011;46987;32.638;-115.438;2023-03-01T03:35:02;7.97;;;1.55;;
61104;SDS011;46987;32.638;-115.438;2023-03-01T03:37:35;6.82;;;1.35;;
61104;SDS011;46987;32.638;-115.438;2023-03-01T03:40:22;6.47;;;1.23;;
61104;SDS011;46987;32.638;-115.438;2023-03-01T03:42:48;8.23;;;1.35;;
61104;SDS011;46987;32.638;-115.438;2023-03-01T03:45:15;8.63;;;1.80;;
61104;SDS011;46987;32.638;-115.438;2023-03-01T03:47:42;5.03;;;1.05;;
61104;SDS011;46987;32.638;-115.438;2023-03-01T03:50:09;8.30;;;1.42;;
61104;SDS011;46987;32.638;-115.438;2023-03-01T03:52:36;4.40;;;1.05;;
61104;SDS011;46987;32.638;-115.438;2023-03-01T03:55:03;4.18;;;1.13;;
61104;SDS011;46987;32.638;-115.438;2023-03-01T03:57:31;4.53;;;1.17;;
61104;SDS011;46987;32.638;-115.438;2023-03-01T03:59:58;6.13;;;1.58;;
61104;SDS011;46987;32.638;-115.438;2023-03-01T04:02:24;7.90;;;1.48;;
61104;SDS011;46987;32.638;-115.438;2023-03-01T04:04:51;7.55;;;0.90;;
61104;SDS011;46987;32.638;-115.438;2023-03-01T04:07:17;4.50;;;1.50;;
61104;SDS011;46987;32.638;-115.438;2023-03-01T04:09:44;4.20;;;1.00;;
61104;SDS011;46987;32.638;-115.438;2023-03-01T04:12:10;5.90;;;1.20;;
61104;SDS011;46987;32.638;-115.438;2023-03-01T04:14:39;3.47;;;0.90;;
61104;SDS011;46987;32.638;-115.438;2023-03-01T04:17:05;5.43;;;1.15;;
61104;SDS011;46987;32.638;-115.438;2023-03-01T04:19:33;3.20;;;1.42;;
61104;SDS011;46987;32.638;-115.438;2023-03-01T04:22:02;7.40;;;1.55;;
61104;SDS011;46987;32.638;-115.438;2023-03-01T04:24:33;6.72;;;1.23;;
61104;SDS011;46987;32.638;-115.438;2023-03-01T04:27:00;7.20;;;1.42;;
61104;SDS011;46987;32.638;-115.438;2023-03-01T04:29:26;7.20;;;1.30;;
61104;SDS011;46987;32.638;-115.438;2023-03-01T04:31:54;7.65;;;1.38;;
61104;SDS011;46987;32.638;-115.438;2023-03-01T04:34:21;6.40;;;1.15;;
61104;SDS011;46987;32.638;-115.438;2023-03-01T04:36:48;3.47;;;1.10;;
61104;SDS011;46987;32.638;-115.438;2023-03-01T04:39:14;4.78;;;1.10;;
61104;SDS011;46987;32.638;-115.438;2023-03-01T04:41:41;5.40;;;1.13;;
61104;SDS011;46987;32.638;-115.438;2023-03-01T04:44:09;10.38;;;1.52;;
61104;SDS011;46987;32.638;-115.438;2023-03-01T04:46:35;5.43;;;1.38;;
61104;SDS011;46987;32.638;-115.438;2023-03-01T04:49:04;5.55;;;1.27;;
61104;SDS011;46987;32.638;-115.438;2023-03-01T04:51:31;5.78;;;1.80;;
61104;SDS011;46987;32.638;-115.438;2023-03-01T04:54:00;7.82;;;1.75;;
61104;SDS011;46987;32.638;-115.438;2023-03-01T04:56:26;7.15;;;1.30;;
61104;SDS011;46987;32.638;-115.438;2023-03-01T04:58:53;5.13;;;1.45;;
61104;SDS011;46987;32.638;-115.438;2023-03-01T05:01:20;4.40;;;1.17;;
61104;SDS011;46987;32.638;-115.438;2023-03-01T05:03:47;6.25;;;1.98;;
61104;SDS011;46987;32.638;-115.438;2023-03-01T05:06:16;7.82;;;1.52;;
61104;SDS011;46987;32.638;-115.438;2023-03-01T05:08:43;5.90;;;1.67;;
61104;SDS011;46987;32.638;-115.438;2023-03-01T05:11:10;8.75;;;1.90;;
61104;SDS011;46987;32.638;-115.438;2023-03-01T05:13:36;4.57;;;1.30;;
61104;SDS011;46987;32.638;-115.438;2023-03-01T05:16:04;10.63;;;2.33;;
61104;SDS011;46987;32.638;-115.438;2023-03-01T05:18:32;6.32;;;1.50;;
61104;SDS011;46987;32.638;-115.438;2023-03-01T05:21:01;7.60;;;2.03;;
61104;SDS011;46987;32.638;-115.438;2023-03-01T05:23:32;7.05;;;1.95;;
61104;SDS011;46987;32.638;-115.438;2023-03-01T05:25:59;6.55;;;1.70;;
61104;SDS011;46987;32.638;-115.438;2023-03-01T05:28:26;6.03;;;1.70;;
61104;SDS011;46987;32.638;-115.438;2023-03-01T05:30:54;7.28;;;2.40;;
61104;SDS011;46987;32.638;-115.438;2023-03-01T05:33:21;6.18;;;1.45;;
61104;SDS011;46987;32.638;-115.438;2023-03-01T05:35:48;5.10;;;2.03;;
61104;SDS011;46987;32.638;-115.438;2023-03-01T05:38:15;6.05;;;1.70;;
61104;SDS011;46987;32.638;-115.438;2023-03-01T05:40:44;4.97;;;2.33;;
61104;SDS011;46987;32.638;-115.438;2023-03-01T05:43:11;4.88;;;1.67;;
61104;SDS011;46987;32.638;-115.438;2023-03-01T05:45:38;5.60;;;2.30;;
61104;SDS011;46987;32.638;-115.438;2023-03-01T05:48:05;6.28;;;1.70;;
61104;SDS011;46987;32.638;-115.438;2023-03-01T05:50:32;6.57;;;1.40;;
61104;SDS011;46987;32.638;-115.438;2023-03-01T05:53:00;6.00;;;1.73;;
61104;SDS011;46987;32.638;-115.438;2023-03-01T05:55:27;5.18;;;1.40;;
61104;SDS011;46987;32.638;-115.438;2023-03-01T05:57:56;8.45;;;1.55;;
61104;SDS011;46987;32.638;-115.438;2023-03-01T06:00:23;5.13;;;1.30;;
61104;SDS011;46987;32.638;-115.438;2023-03-01T06:02:50;4.28;;;1.42;;
61104;SDS011;46987;32.638;-115.438;2023-03-01T06:05:17;5.78;;;1.20;;
61104;SDS011;46987;32.638;-115.438;2023-03-01T06:07:44;3.30;;;1.10;;
61104;SDS011;46987;32.638;-115.438;2023-03-01T06:10:11;6.18;;;1.45;;
61104;SDS011;46987;32.638;-115.438;2023-03-01T06:12:38;6.55;;;1.88;;
61104;SDS011;46987;32.638;-115.438;2023-03-01T06:15:08;7.20;;;1.75;;
61104;SDS011;46987;32.638;-115.438;2023-03-01T06:17:38;10.35;;;1.80;;
61104;SDS011;46987;32.638;-115.438;2023-03-01T06:20:05;6.18;;;1.75;;
61104;SDS011;46987;32.638;-115.438;2023-03-01T06:22:33;7.13;;;1.67;;
61104;SDS011;46987;32.638;-115.438;2023-03-01T06:24:59;7.43;;;1.95;;
61104;SDS011;46987;32.638;-115.438;2023-03-01T06:27:26;9.30;;;1.90;;
61104;SDS011;46987;32.638;-115.438;2023-03-01T06:29:53;4.25;;;1.40;;
61104;SDS011;46987;32.638;-115.438;2023-03-01T06:32:21;6.10;;;1.30;;
61104;SDS011;46987;32.638;-115.438;2023-03-01T06:34:48;5.00;;;1.00;;
61104;SDS011;46987;32.638;-115.438;2023-03-01T06:37:15;7.93;;;1.30;;
61104;SDS011;46987;32.638;-115.438;2023-03-01T06:39:42;4.65;;;0.90;;
61104;SDS011;46987;32.638;-115.438;2023-03-01T06:42:08;4.50;;;1.13;;
61104;SDS011;46987;32.638;-115.438;2023-03-01T06:44:36;3.28;;;0.93;;
61104;SDS011;46987;32.638;-115.438;2023-03-01T06:47:03;2.67;;;0.70;;
61104;SDS011;46987;32.638;-115.438;2023-03-01T06:49:31;4.72;;;0.80;;
61104;SDS011;46987;32.638;-115.438;2023-03-01T06:51:58;3.92;;;0.90;;
61104;SDS011;46987;32.638;-115.438;2023-03-01T06:54:24;2.58;;;0.77;;
61104;SDS011;46987;32.638;-115.438;2023-03-01T06:56:52;4.85;;;1.23;;
61104;SDS011;46987;32.638;-115.438;2023-03-01T06:59:19;5.55;;;0.68;;
61104;SDS011;46987;32.638;-115.438;2023-03-01T07:01:45;2.90;;;0.90;;
61104;SDS011;46987;32.638;-115.438;2023-03-01T07:04:12;3.83;;;0.57;;
61104;SDS011;46987;32.638;-115.438;2023-03-01T07:06:41;2.53;;;0.60;;
61104;SDS011;46987;32.638;-115.438;2023-03-01T07:09:07;3.53;;;0.63;;
61104;SDS011;46987;32.638;-115.438;2023-03-01T07:11:34;2.83;;;0.70;;
61104;SDS011;46987;32.638;-115.438;2023-03-01T07:14:01;5.32;;;0.65;;
61104;SDS011;46987;32.638;-115.438;2023-03-01T07:16:28;2.45;;;0.65;;
61104;SDS011;46987;32.638;-115.438;2023-03-01T07:18:54;3.20;;;0.90;;
61104;SDS011;46987;32.638;-115.438;2023-03-01T07:21:21;4.05;;;0.80;;
61104;SDS011;46987;32.638;-115.438;2023-03-01T07:23:49;2.65;;;0.77;;
61104;SDS011;46987;32.638;-115.438;2023-03-01T07:26:18;2.00;;;0.55;;
61104;SDS011;46987;32.638;-115.438;2023-03-01T07:28:44;2.03;;;0.70;;
61104;SDS011;46987;32.638;-115.438;2023-03-01T07:31:11;4.70;;;0.93;;
61104;SDS011;46987;32.638;-115.438;2023-03-01T07:33:37;5.03;;;0.82;;
61104;SDS011;46987;32.638;-115.438;2023-03-01T07:36:04;3.33;;;0.98;;
61104;SDS011;46987;32.638;-115.438;2023-03-01T07:38:31;5.70;;;0.80;;
61104;SDS011;46987;32.638;-115.438;2023-03-01T07:41:00;4.72;;;0.88;;
61104;SDS011;46987;32.638;-115.438;2023-03-01T07:43:26;2.30;;;0.88;;
61104;SDS011;46987;32.638;-115.438;2023-03-01T07:45:53;10.18;;;1.88;;
61104;SDS011;46987;32.638;-115.438;2023-03-01T07:48:20;5.57;;;1.10;;
61104;SDS011;46987;32.638;-115.438;2023-03-01T07:50:46;6.35;;;1.60;;
61104;SDS011;46987;32.638;-115.438;2023-03-01T07:53:13;4.30;;;1.00;;
61104;SDS011;46987;32.638;-115.438;2023-03-01T07:55:40;3.85;;;0.80;;
61104;SDS011;46987;32.638;-115.438;2023-03-01T07:58:08;5.47;;;1.35;;
61104;SDS011;46987;32.638;-115.438;2023-03-01T08:00:34;3.03;;;0.63;;
61104;SDS011;46987;32.638;-115.438;2023-03-01T08:03:04;2.33;;;0.77;;
61104;SDS011;46987;32.638;-115.438;2023-03-01T08:05:30;3.10;;;0.98;;
61104;SDS011;46987;32.638;-115.438;2023-03-01T08:07:57;7.32;;;0.70;;
61104;SDS011;46987;32.638;-115.438;2023-03-01T08:10:23;4.05;;;0.80;;
61104;SDS011;46987;32.638;-115.438;2023-03-01T08:12:51;2.75;;;0.95;;
61104;SDS011;46987;32.638;-115.438;2023-03-01T08:15:19;3.75;;;0.73;;
61104;SDS011;46987;32.638;-115.438;2023-03-01T08:17:48;3.38;;;0.80;;
61104;SDS011;46987;32.638;-115.438;2023-03-01T08:20:15;5.43;;;0.88;;
61104;SDS011;46987;32.638;-115.438;2023-03-01T08:22:42;3.60;;;0.70;;
61104;SDS011;46987;32.638;-115.438;2023-03-01T08:25:09;1.77;;;0.50;;
61104;SDS011;46987;32.638;-115.438;2023-03-01T08:27:35;6.82;;;1.30;;
61104;SDS011;46987;32.638;-115.438;2023-03-01T08:30:02;2.88;;;0.90;;
61104;SDS011;46987;32.638;-115.438;2023-03-01T08:32:32;4.65;;;1.63;;
61104;SDS011;46987;32.638;-115.438;2023-03-01T08:35:01;3.97;;;1.02;;
61104;SDS011;46987;32.638;-115.438;2023-03-01T08:37:27;3.20;;;1.10;;
61104;SDS011;46987;32.638;-115.438;2023-03-01T08:39:56;5.82;;;2.22;;
61104;SDS011;46987;32.638;-115.438;2023-03-01T08:42:23;5.40;;;1.10;;
61104;SDS011;46987;32.638;-115.438;2023-03-01T08:44:49;4.63;;;1.40;;
61104;SDS011;46987;32.638;-115.438;2023-03-01T08:47:16;5.85;;;1.20;;
61104;SDS011;46987;32.638;-115.438;2023-03-01T08:49:45;4.88;;;1.17;;
61104;SDS011;46987;32.638;-115.438;2023-03-01T08:52:11;3.30;;;1.10;;
61104;SDS011;46987;32.638;-115.438;2023-03-01T08:54:38;4.65;;;1.42;;
61104;SDS011;46987;32.638;-115.438;2023-03-01T08:57:04;4.03;;;1.30;;
61104;SDS011;46987;32.638;-115.438;2023-03-01T08:59:31;4.82;;;1.65;;
61104;SDS011;46987;32.638;-115.438;2023-03-01T09:02:03;4.07;;;1.42;;
61104;SDS011;46987;32.638;-115.438;2023-03-01T09:04:29;6.10;;;1.60;;
61104;SDS011;46987;32.638;-115.438;2023-03-01T09:06:57;6.28;;;1.75;;
61104;SDS011;46987;32.638;-115.438;2023-03-01T09:09:25;6.90;;;1.75;;
61104;SDS011;46987;32.638;-115.438;2023-03-01T09:11:51;7.63;;;1.83;;
61104;SDS011;46987;32.638;-115.438;2023-03-01T09:14:18;4.30;;;1.88;;
61104;SDS011;46987;32.638;-115.438;2023-03-01T09:16:45;8.77;;;1.73;;
61104;SDS011;46987;32.638;-115.438;2023-03-01T09:19:12;7.95;;;1.60;;
61104;SDS011;46987;32.638;-115.438;2023-03-01T09:21:39;5.53;;;1.50;;
61104;SDS011;46987;32.638;-115.438;2023-03-01T09:24:08;6.18;;;1.77;;
61104;SDS011;46987;32.638;-115.438;2023-03-01T09:26:38;8.20;;;1.88;;
61104;SDS011;46987;32.638;-115.438;2023-03-01T09:29:05;7.05;;;1.70;;
61104;SDS011;46987;32.638;-115.438;2023-03-01T09:31:31;3.67;;;1.40;;
61104;SDS011;46987;32.638;-115.438;2023-03-01T09:33:58;6.22;;;1.67;;
61104;SDS011;46987;32.638;-115.438;2023-03-01T09:36:25;7.72;;;1.45;;
61104;SDS011;46987;32.638;-115.438;2023-03-01T09:38:51;4.78;;;1.52;;
61104;SDS011;46987;32.638;-115.438;2023-03-01T09:41:30;8.48;;;1.65;;
61104;SDS011;46987;32.638;-115.438;2023-03-01T09:44:02;7.47;;;1.67;;
61104;SDS011;46987;32.638;-115.438;2023-03-01T09:46:31;6.38;;;1.80;;
61104;SDS011;46987;32.638;-115.438;2023-03-01T09:48:58;10.65;;;1.90;;
61104;SDS011;46987;32.638;-115.438;2023-03-01T09:51:29;7.00;;;1.48;;
61104;SDS011;46987;32.638;-115.438;2023-03-01T09:53:56;4.53;;;1.48;;
61104;SDS011;46987;32.638;-115.438;2023-03-01T09:56:25;5.28;;;1.30;;
61104;SDS011;46987;32.638;-115.438;2023-03-01T09:58:58;3.92;;;1.20;;
61104;SDS011;46987;32.638;-115.438;2023-03-01T10:01:35;4.10;;;1.15;;
61104;SDS011;46987;32.638;-115.438;2023-03-01T10:06:56;4.43;;;1.30;;
61104;SDS011;46987;32.638;-115.438;2023-03-01T10:09:24;6.53;;;1.25;;
61104;SDS011;46987;32.638;-115.438;2023-03-01T10:11:52;2.22;;;0.75;;
61104;SDS011;46987;32.638;-115.438;2023-03-01T10:14:26;5.70;;;1.02;;
61104;SDS011;46987;32.638;-115.438;2023-03-01T10:16:57;2.83;;;0.82;;
61104;SDS011;46987;32.638;-115.438;2023-03-01T10:19:25;6.63;;;0.90;;
61104;SDS011;46987;32.638;-115.438;2023-03-01T10:21:54;1.67;;;0.60;;
61104;SDS011;46987;32.638;-115.438;2023-03-01T10:24:24;3.30;;;0.80;;
61104;SDS011;46987;32.638;-115.438;2023-03-01T10:26:54;7.72;;;1.45;;
61104;SDS011;46987;32.638;-115.438;2023-03-01T10:29:27;5.45;;;1.80;;
61104;SDS011;46987;32.638;-115.438;2023-03-01T10:31:57;4.75;;;1.13;;
61104;SDS011;46987;32.638;-115.438;2023-03-01T10:34:31;4.43;;;1.10;;
61104;SDS011;46987;32.638;-115.438;2023-03-01T10:37:00;6.22;;;1.35;;
61104;SDS011;46987;32.638;-115.438;2023-03-01T10:39:27;7.65;;;1.58;;
61104;SDS011;46987;32.638;-115.438;2023-03-01T10:41:55;4.18;;;1.10;;
61104;SDS011;46987;32.638;-115.438;2023-03-01T10:44:39;6.35;;;1.05;;
61104;SDS011;46987;32.638;-115.438;2023-03-01T10:47:11;4.50;;;1.10;;
61104;SDS011;46987;32.638;-115.438;2023-03-01T10:49:39;6.45;;;1.20;;
61104;SDS011;46987;32.638;-115.438;2023-03-01T10:52:11;6.07;;;1.13;;
61104;SDS011;46987;32.638;-115.438;2023-03-01T10:54:43;7.60;;;1.40;;
61104;SDS011;46987;32.638;-115.438;2023-03-01T10:57:24;7.47;;;1.38;;
61104;SDS011;46987;32.638;-115.438;2023-03-01T11:00:10;5.78;;;1.83;;
61104;SDS011;46987;32.638;-115.438;2023-03-01T11:02:42;9.82;;;1.70;;
61104;SDS011;46987;32.638;-115.438;2023-03-01T11:05:15;6.95;;;1.80;;
61104;SDS011;46987;32.638;-115.438;2023-03-01T11:07:46;5.32;;;1.88;;
61104;SDS011;46987;32.638;-115.438;2023-03-01T11:10:16;5.60;;;2.25;;
61104;SDS011;46987;32.638;-115.438;2023-03-01T11:12:43;4.50;;;1.75;;
61104;SDS011;46987;32.638;-115.438;2023-03-01T11:15:19;5.55;;;1.90;;
61104;SDS011;46987;32.638;-115.438;2023-03-01T11:17:46;5.40;;;1.90;;
61104;SDS011;46987;32.638;-115.438;2023-03-01T11:20:15;4.70;;;1.85;;
61104;SDS011;46987;32.638;-115.438;2023-03-01T11:22:44;8.02;;;2.90;;
61104;SDS011;46987;32.638;-115.438;2023-03-01T11:25:12;10.27;;;3.47;;
61104;SDS011;46987;32.638;-115.438;2023-03-01T11:27:40;9.50;;;5.68;;
61104;SDS011;46987;32.638;-115.438;2023-03-01T11:32:42;9.77;;;5.68;;
61104;SDS011;46987;32.638;-115.438;2023-03-01T11:35:10;10.75;;;5.03;;
61104;SDS011;46987;32.638;-115.438;2023-03-01T11:37:43;9.27;;;4.68;;
61104;SDS011;46987;32.638;-115.438;2023-03-01T11:40:15;9.27;;;4.30;;
61104;SDS011;46987;32.638;-115.438;2023-03-01T11:42:47;8.68;;;4.40;;
61104;SDS011;46987;32.638;-115.438;2023-03-01T11:47:52;10.10;;;3.45;;
61104;SDS011;46987;32.638;-115.438;2023-03-01T11:50:26;7.88;;;3.85;;
61104;SDS011;46987;32.638;-115.438;2023-03-01T11:52:57;10.50;;;5.03;;
61104;SDS011;46987;32.638;-115.438;2023-03-01T11:55:30;10.70;;;5.75;;
61104;SDS011;46987;32.638;-115.438;2023-03-01T11:58:07;11.45;;;6.32;;
61104;SDS011;46987;32.638;-115.438;2023-03-01T12:00:43;12.73;;;6.13;;
61104;SDS011;46987;32.638;-115.438;2023-03-01T12:03:25;8.80;;;3.97;;
61104;SDS011;46987;32.638;-115.438;2023-03-01T12:06:09;8.63;;;3.72;;
61104;SDS011;46987;32.638;-115.438;2023-03-01T12:08:38;10.27;;;3.65;;
61104;SDS011;46987;32.638;-115.438;2023-03-01T12:11:10;12.73;;;3.80;;
61104;SDS011;46987;32.638;-115.438;2023-03-01T12:16:31;7.20;;;3.05;;
61104;SDS011;46987;32.638;-115.438;2023-03-01T12:22:00;12.75;;;5.43;;
61104;SDS011;46987;32.638;-115.438;2023-03-01T12:24:34;11.25;;;5.10;;
61104;SDS011;46987;32.638;-115.438;2023-03-01T12:27:10;12.82;;;5.78;;
61104;SDS011;46987;32.638;-115.438;2023-03-01T12:29:39;11.50;;;5.57;;
61104;SDS011;46987;32.638;-115.438;2023-03-01T12:32:12;9.43;;;4.82;;
61104;SDS011;46987;32.638;-115.438;2023-03-01T12:34:51;12.00;;;3.83;;
61104;SDS011;46987;32.638;-115.438;2023-03-01T12:37:24;6.85;;;2.72;;
61104;SDS011;46987;32.638;-115.438;2023-03-01T12:39:56;7.60;;;2.70;;
61104;SDS011;46987;32.638;-115.438;2023-03-01T12:42:26;5.90;;;2.28;;
61104;SDS011;46987;32.638;-115.438;2023-03-01T12:45:01;6.15;;;1.98;;
61104;SDS011;46987;32.638;-115.438;2023-03-01T12:47:36;11.85;;;3.08;;
61104;SDS011;46987;32.638;-115.438;2023-03-01T12:50:10;9.95;;;2.88;;
61104;SDS011;46987;32.638;-115.438;2023-03-01T12:52:40;10.02;;;3.45;;
61104;SDS011;46987;32.638;-115.438;2023-03-01T12:55:17;8.33;;;4.27;;
61104;SDS011;46987;32.638;-115.438;2023-03-01T12:57:46;5.95;;;3.38;;
61104;SDS011;46987;32.638;-115.438;2023-03-01T13:00:21;8.23;;;3.28;;
61104;SDS011;46987;32.638;-115.438;2023-03-01T13:02:54;6.40;;;2.60;;
61104;SDS011;46987;32.638;-115.438;2023-03-01T13:05:26;7.32;;;2.58;;
61104;SDS011;46987;32.638;-115.438;2023-03-01T13:07:58;5.50;;;1.85;;
61104;SDS011;46987;32.638;-115.438;2023-03-01T13:10:26;5.45;;;2.00;;
61104;SDS011;46987;32.638;-115.438;2023-03-01T13:13:03;10.13;;;2.80;;
61104;SDS011;46987;32.638;-115.438;2023-03-01T13:15:35;6.82;;;2.75;;
61104;SDS011;46987;32.638;-115.438;2023-03-01T13:18:03;6.97;;;2.78;;
61104;SDS011;46987;32.638;-115.438;2023-03-01T13:20:31;6.88;;;2.60;;
61104;SDS011;46987;32.638;-115.438;2023-03-01T13:23:04;4.85;;;2.50;;
61104;SDS011;46987;32.638;-115.438;2023-03-01T13:25:32;5.70;;;2.35;;
61104;SDS011;46987;32.638;-115.438;2023-03-01T13:30:44;6.13;;;2.58;;
61104;SDS011;46987;32.638;-115.438;2023-03-01T13:35:55;6.28;;;2.35;;
61104;SDS011;46987;32.638;-115.438;2023-03-01T13:38:44;12.95;;;2.75;;
61104;SDS011;46987;32.638;-115.438;2023-03-01T13:41:12;4.53;;;2.10;;
61104;SDS011;46987;32.638;-115.438;2023-03-01T13:43:38;4.82;;;1.90;;
61104;SDS011;46987;32.638;-115.438;2023-03-01T13:46:10;5.25;;;1.73;;
61104;SDS011;46987;32.638;-115.438;2023-03-01T13:48:37;6.63;;;2.00;;
61104;SDS011;46987;32.638;-115.438;2023-03-01T13:51:05;13.32;;;2.97;;
61104;SDS011;46987;32.638;-115.438;2023-03-01T13:53:33;10.18;;;3.10;;
61104;SDS011;46987;32.638;-115.438;2023-03-01T13:56:07;9.85;;;3.33;;
61104;SDS011;46987;32.638;-115.438;2023-03-01T13:58:43;8.55;;;3.13;;
61104;SDS011;46987;32.638;-115.438;2023-03-01T14:01:20;8.15;;;2.92;;
61104;SDS011;46987;32.638;-115.438;2023-03-01T14:03:47;7.72;;;3.00;;
61104;SDS011;46987;32.638;-115.438;2023-03-01T14:06:14;7.55;;;2.30;;
61104;SDS011;46987;32.638;-115.438;2023-03-01T14:08:44;9.30;;;3.38;;
61104;SDS011;46987;32.638;-115.438;2023-03-01T14:11:33;14.32;;;2.50;;
61104;SDS011;46987;32.638;-115.438;2023-03-01T14:16:48;10.85;;;3.75;;
61104;SDS011;46987;32.638;-115.438;2023-03-01T14:19:18;12.80;;;5.18;;
61104;SDS011;46987;32.638;-115.438;2023-03-01T14:21:47;11.20;;;6.30;;
61104;SDS011;46987;32.638;-115.438;2023-03-01T14:24:17;16.80;;;7.90;;
61104;SDS011;46987;32.638;-115.438;2023-03-01T14:26:47;13.63;;;7.95;;
61104;SDS011;46987;32.638;-115.438;2023-03-01T14:29:23;18.33;;;8.60;;
61104;SDS011;46987;32.638;-115.438;2023-03-01T14:31:50;16.52;;;8.63;;
61104;SDS011;46987;32.638;-115.438;2023-03-01T14:34:19;19.00;;;8.77;;
61104;SDS011;46987;32.638;-115.438;2023-03-01T14:36:46;21.33;;;8.90;;
61104;SDS011;46987;32.638;-115.438;2023-03-01T14:39:16;14.70;;;7.30;;
61104;SDS011;46987;32.638;-115.438;2023-03-01T14:41:43;18.63;;;6.93;;
61104;SDS011;46987;32.638;-115.438;2023-03-01T14:44:14;17.27;;;6.10;;